Time;durP1;ratioP1;P1;durP2;ratioP2;P2;SDS_P1;SDS_P2;PMS_P1;PMS_P2;Temp;Humidity;BMP_temperature;BMP_pressure;BME280_temperature;BME280_humidity;BME280_pressure;Samples;Min_cycle;Max_cycle;Signal;HPM_P1;HPM_P2
2023/08/05 00:00:45;;;;;;;;;;;20.90;49.60;;;20.15;49.76;101058.28;12249774;19;20274;-86
2023/08/05 00:04:46;;;;;;;;;;;20.80;49.70;;;20.09;49.79;101054.34;12249429;19;19926;-86
2023/08/05 00:08:48;;;;;;;;;;;20.80;49.70;;;20.05;49.68;101050.31;12250672;19;19919;-86
2023/08/05 00:12:49;;;;;;;;;;;20.70;49.60;;;19.69;49.81;101010.25;12250894;19;19910;-86
2023/08/05 00:16:51;;;;;;;;;;;20.70;49.70;;;19.74;49.88;101034.53;12246509;19;20270;-86
2023/08/05 00:20:52;;;;;;;;;;;20.60;49.70;;;19.76;49.91;101056.41;12250814;19;19942;-86
2023/08/05 00:24:53;;;;;;;;;;;20.50;49.70;;;19.86;49.91;101078.47;12250108;19;20325;-86
2023/08/05 00:28:55;;;;;;;;;;;20.50;49.80;;;19.78;49.82;101064.22;12250494;19;19928;-86
2023/08/05 00:32:57;;;;;;;;;;;20.50;49.90;;;19.72;50.09;101049.72;12249146;19;19919;-86
2023/08/05 00:36:58;;;;;;;;;;;20.50;49.90;;;19.60;49.95;101030.38;12244812;19;20156;-86
2023/08/05 00:41:00;;;;;;;;;;;20.40;49.90;;;19.75;49.87;101057.38;12248078;19;19922;-86
2023/08/05 00:45:02;;;;;;;;;;;20.40;49.90;;;19.70;49.75;101049.00;12244154;19;19926;-86
2023/08/05 00:49:04;;;;;;;;;;;20.40;49.90;;;19.63;50.23;101040.75;12248619;19;19915;-86
2023/08/05 00:53:06;;;;;;;;;;;20.40;49.90;;;19.67;50.08;101054.59;12248622;19;19952;-85
2023/08/05 00:57:09;;;;;;;;;;;20.40;49.90;;;19.56;50.21;101030.81;12245526;19;20337;-85
2023/08/05 01:01:11;;;;;;;;;;;20.30;49.90;;;19.33;50.04;101014.28;12249315;19;19949;-85
2023/08/05 01:05:13;;;;;;;;;;;20.30;49.90;;;19.41;50.32;101025.03;12243614;19;19918;-85
2023/08/05 01:09:14;;;;;;;;;;;20.30;49.90;;;19.47;49.94;101029.81;12246448;19;19915;-85
2023/08/05 01:13:16;;;;;;;;;;;20.20;49.90;;;19.29;50.19;101011.06;12245046;19;19915;-85
2023/08/05 01:17:17;;;;;;;;;;;20.30;50.00;;;19.41;50.01;101030.34;12238703;19;19944;-86
2023/08/05 01:21:37;;;;;;;;;;;20.20;50.00;;;19.45;50.19;101043.19;12246451;19;19935;-85
2023/08/05 01:25:39;;;;;;;;;;;20.20;50.00;;;19.34;50.37;101027.41;12242915;19;19982;-85
2023/08/05 01:29:41;;;;;;;;;;;20.20;50.10;;;19.39;50.41;101035.78;12243641;19;19930;-85
2023/08/05 01:33:44;;;;;;;;;;;20.10;50.10;;;19.33;50.54;101024.88;12244840;19;19994;-85
2023/08/05 01:37:46;;;;;;;;;;;20.20;50.20;;;19.22;50.49;101007.28;12240349;19;19925;-85
2023/08/05 01:41:48;;;;;;;;;;;20.20;50.20;;;19.25;50.30;101012.31;12246153;19;19914;-85
2023/08/05 01:45:49;;;;;;;;;;;20.20;50.30;;;19.38;50.26;101034.09;12246012;19;19950;-85
2023/08/05 01:49:51;;;;;;;;;;;20.10;50.40;;;19.24;50.54;101013.28;12244450;19;20003;-85
2023/08/05 01:53:53;;;;;;;;;;;20.10;50.40;;;19.35;50.30;101034.38;12246292;19;19911;-85
2023/08/05 01:57:55;;;;;;;;;;;20.10;50.40;;;19.05;50.53;100997.34;12240317;19;20670;-85
2023/08/05 02:01:56;;;;;;;;;;;20.10;50.40;;;19.27;50.58;101026.25;12243293;19;20385;-85
2023/08/05 02:05:58;;;;;;;;;;;20.10;50.40;;;19.24;50.40;101015.94;12242097;19;19930;-85
2023/08/05 02:09:59;;;;;;;;;;;20.10;50.50;;;19.31;50.71;101022.38;12244716;19;19915;-85
2023/08/05 02:14:02;;;;;;;;;;;20.20;50.60;;;19.26;50.80;101019.28;12244975;19;20341;-85
2023/08/05 02:18:03;;;;;;;;;;;20.20;50.60;;;19.23;50.72;101015.09;12240744;19;19947;-85
2023/08/05 02:22:05;;;;;;;;;;;20.20;50.60;;;19.34;50.84;101032.69;12243471;19;19926;-85
2023/08/05 02:26:07;;;;;;;;;;;20.20;50.50;;;19.30;50.63;101033.09;12243215;19;19918;-85
2023/08/05 02:30:09;;;;;;;;;;;20.20;50.60;;;19.24;50.56;101030.00;12242277;19;19922;-85
2023/08/05 02:34:11;;;;;;;;;;;20.20;50.60;;;19.04;50.85;101003.56;12244711;19;19961;-85
2023/08/05 02:38:13;;;;;;;;;;;20.20;50.60;;;19.07;50.87;101011.28;12249815;19;19919;-84
2023/08/05 02:42:15;;;;;;;;;;;20.20;50.60;;;19.23;50.70;101052.19;12256043;19;19923;-85
2023/08/05 02:46:17;;;;;;;;;;;20.20;50.60;;;19.24;51.13;101045.06;12254437;19;20318;-85
2023/08/05 02:50:18;;;;;;;;;;;20.20;50.60;;;19.30;50.90;101060.41;12254950;19;19921;-85
2023/08/05 02:54:19;;;;;;;;;;;20.10;50.50;;;19.18;50.81;101037.66;12255571;19;19911;-85
2023/08/05 02:58:21;;;;;;;;;;;20.10;50.60;;;19.16;51.02;101031.66;12250609;19;19915;-85
2023/08/05 03:02:23;;;;;;;;;;;20.10;50.50;;;19.17;51.10;101041.25;12253834;19;19923;-85
2023/08/05 03:06:26;;;;;;;;;;;20.10;50.60;;;18.95;50.90;101008.69;12252917;19;19919;-84
2023/08/05 03:10:28;;;;;;;;;;;20.10;50.60;;;19.14;50.78;101037.06;12252233;19;19923;-85
2023/08/05 03:14:29;;;;;;;;;;;20.10;50.60;;;19.20;50.92;101049.78;12252661;19;19932;-85
2023/08/05 03:18:31;;;;;;;;;;;20.10;50.60;;;19.15;51.17;101053.81;12247746;19;19942;-85
2023/08/05 03:22:33;;;;;;;;;;;20.10;50.60;;;19.17;50.83;101051.84;12252843;19;19915;-85
2023/08/05 03:26:35;;;;;;;;;;;20.10;50.60;;;19.17;50.86;101055.34;12250779;19;19935;-85
2023/08/05 03:30:40;;;;;;;;;;;20.10;50.60;;;19.05;50.88;101026.44;12251998;19;19929;-85
2023/08/05 03:34:45;;;;;;;;;;;20.00;50.70;;;19.11;51.06;101044.44;12252567;19;20316;-85
2023/08/05 03:38:47;;;;;;;;;;;20.00;50.60;;;19.01;51.11;101032.00;12246753;19;20339;-85
2023/08/05 03:42:50;;;;;;;;;;;20.00;50.60;;;19.05;51.01;101047.63;12252363;19;19970;-84
2023/08/05 03:46:53;;;;;;;;;;;20.00;50.60;;;18.94;51.13;101041.44;12246709;19;19915;-85
2023/08/05 03:50:55;;;;;;;;;;;19.90;50.60;;;19.00;51.13;101054.13;12251111;19;20261;-85
2023/08/05 03:54:57;;;;;;;;;;;19.90;50.70;;;18.95;51.39;101056.34;12252003;19;19923;-84
2023/08/05 03:58:59;;;;;;;;;;;19.80;50.70;;;18.96;51.11;101055.38;12250932;19;19986;-85
2023/08/05 04:03:02;;;;;;;;;;;19.80;50.80;;;18.98;51.21;101065.81;12250211;19;20546;-85
2023/08/05 04:07:04;;;;;;;;;;;19.80;50.90;;;18.97;51.24;101065.00;12246979;19;19910;-85
2023/08/05 04:11:06;;;;;;;;;;;19.80;50.90;;;18.89;51.20;101048.94;12251523;19;19907;-84
2023/08/05 04:15:08;;;;;;;;;;;19.80;50.90;;;18.90;51.18;101049.75;12250672;19;20286;-84
2023/08/05 04:19:11;;;;;;;;;;;19.80;50.90;;;18.95;51.47;101050.22;12250208;19;19911;-84
2023/08/05 04:23:16;;;;;;;;;;;19.80;51.30;;;18.98;51.17;101064.03;12249089;19;19919;-85
2023/08/05 04:27:17;;;;;;;;;;;19.80;51.00;;;18.82;51.38;101037.19;12246543;19;19914;-85
2023/08/05 04:31:19;;;;;;;;;;;19.90;51.10;;;18.97;51.21;101074.75;12250539;19;19954;-85
2023/08/05 04:35:21;;;;;;;;;;;19.80;51.00;;;18.87;51.48;101071.19;12249130;19;19919;-85
2023/08/05 04:39:22;;;;;;;;;;;19.80;51.10;;;18.89;51.53;101074.56;12250384;19;19907;-85
2023/08/05 04:43:24;;;;;;;;;;;19.80;51.10;;;18.86;51.54;101061.59;12250833;19;20632;-85
2023/08/05 04:47:26;;;;;;;;;;;19.80;51.10;;;18.94;51.63;101064.44;12241792;19;19951;-85
2023/08/05 04:51:27;;;;;;;;;;;19.80;51.30;;;18.90;51.31;101063.00;12248673;19;19982;-84
2023/08/05 04:55:28;;;;;;;;;;;19.80;51.20;;;18.94;51.37;101086.44;12249132;19;21478;-84
2023/08/05 04:59:30;;;;;;;;;;;19.80;51.30;;;18.89;51.66;101075.38;12246058;19;19949;-84
2023/08/05 05:03:31;;;;;;;;;;;19.80;51.40;;;18.91;51.39;101077.91;12246806;19;19922;-86
2023/08/05 05:07:32;;;;;;;;;;;19.80;51.40;;;18.95;51.83;101088.09;12245282;19;20417;-86
2023/08/05 05:11:35;;;;;;;;;;;19.80;51.40;;;18.72;51.54;101054.78;12247559;19;19974;-86
2023/08/05 05:15:36;;;;;;;;;;;19.80;51.40;;;18.95;51.83;101085.44;12243737;19;20222;-87
2023/08/05 05:19:38;;;;;;;;;;;19.80;51.50;;;18.75;51.62;101059.84;12247828;19;19906;-86
2023/08/05 05:23:39;;;;;;;;;;;19.80;51.50;;;18.82;51.94;101071.56;12245235;19;19933;-86
2023/08/05 05:27:41;;;;;;;;;;;19.90;51.50;;;19.00;51.56;101083.25;12244382;19;20310;-86
2023/08/05 05:31:42;;;;;;;;;;;19.90;51.50;;;18.99;51.72;101075.47;12247323;19;19922;-87
2023/08/05 05:35:44;;;;;;;;;;;20.00;52.10;;;19.01;51.93;101090.25;12245634;19;19919;-86
2023/08/05 05:39:46;;;;;;;;;;;20.00;51.60;;;19.02;51.95;101076.03;12242382;19;19928;-86
2023/08/05 05:43:48;;;;;;;;;;;20.00;51.70;;;18.99;51.77;101070.16;12240897;19;19926;-84
2023/08/05 05:47:49;;;;;;;;;;;20.10;51.80;;;19.14;52.10;101086.53;12241894;19;19914;-82
2023/08/05 05:51:51;;;;;;;;;;;20.10;51.80;;;19.27;52.07;101092.47;12244074;19;19922;-82
2023/08/05 05:55:53;;;;;;;;;;;20.10;52.40;;;19.35;52.07;101081.22;12241242;19;19917;-82
2023/08/05 05:59:56;;;;;;;;;;;20.30;52.30;;;19.42;52.29;101075.25;12243497;19;19922;-81
2023/08/05 06:03:57;;;;;;;;;;;20.40;52.40;;;19.54;52.18;101075.16;12239033;19;19932;-81
2023/08/05 06:07:59;;;;;;;;;;;20.40;52.40;;;19.62;51.96;101060.25;12238053;19;19911;-81
2023/08/05 06:12:00;;;;;;;;;;;20.60;53.20;;;19.74;52.17;101071.63;12252109;19;19918;-81
2023/08/05 06:16:02;;;;;;;;;;;20.70;52.70;;;19.86;52.29;101073.16;12250120;19;20295;-81
2023/08/05 06:20:04;;;;;;;;;;;20.80;52.60;;;20.04;52.58;101075.16;12252603;19;19927;-82
2023/08/05 06:24:05;;;;;;;;;;;21.00;52.80;;;20.21;52.46;101089.56;12254844;19;19923;-81
2023/08/05 06:28:07;;;;;;;;;;;21.10;52.60;;;20.33;52.42;101089.28;12250137;19;19919;-81
2023/08/05 06:32:09;;;;;;;;;;;21.30;52.80;;;20.44;52.39;101088.31;12253081;19;20333;-81
2023/08/05 06:36:11;;;;;;;;;;;21.40;52.50;;;20.49;52.41;101091.34;12249518;19;19918;-82
2023/08/05 06:40:12;;;;;;;;;;;21.50;52.50;;;20.34;52.39;101059.13;12252495;19;19929;-82
2023/08/05 06:44:13;;;;;;;;;;;21.60;52.40;;;20.57;52.53;101073.94;12247388;19;19929;-80
2023/08/05 06:48:15;;;;;;;;;;;21.70;52.30;;;20.74;52.34;101092.66;12246260;19;20369;-81
2023/08/05 06:52:16;;;;;;;;;;;21.80;52.80;;;20.80;52.55;101099.22;12249446;19;20325;-82
2023/08/05 06:56:18;;;;;;;;;;;21.80;52.30;;;20.77;52.43;101087.06;12254164;19;19926;-83
2023/08/05 07:00:19;;;;;;;;;;;21.90;52.40;;;20.89;52.61;101101.00;12252236;19;19911;-82
2023/08/05 07:04:20;;;;;;;;;;;21.90;52.10;;;20.80;52.24;101074.47;12256269;19;19942;-82
2023/08/05 07:08:23;;;;;;;;;;;21.90;52.20;;;20.96;52.53;101082.69;12249662;19;19919;-82
2023/08/05 07:12:25;;;;;;;;;;;22.00;52.00;;;20.94;52.44;101066.06;12255874;19;19915;-82
2023/08/05 07:16:26;;;;;;;;;;;22.10;52.10;;;21.10;52.26;101076.91;12249602;19;19918;-82
2023/08/05 07:20:27;;;;;;;;;;;22.10;52.10;;;21.03;52.36;101048.41;12245550;19;19954;-82
2023/08/05 07:24:29;;;;;;;;;;;22.20;52.00;;;21.22;52.58;101074.91;12251482;19;19944;-83
2023/08/05 07:28:30;;;;;;;;;;;22.30;52.00;;;21.23;52.27;101075.75;12248924;19;20366;-83
2023/08/05 07:32:32;;;;;;;;;;;22.30;52.10;;;21.27;52.22;101077.97;12253479;19;20314;-82
2023/08/05 07:36:33;;;;;;;;;;;22.30;52.00;;;21.33;52.70;101085.38;12254095;19;19995;-82
2023/08/05 07:40:37;;;;;;;;;;;22.30;51.80;;;21.37;52.44;101083.25;12253892;19;19925;-82
2023/08/05 07:44:40;;;;;;;;;;;22.40;51.90;;;21.45;52.61;101079.91;12251580;19;19926;-82
2023/08/05 07:48:42;;;;;;;;;;;22.40;51.80;;;21.42;52.65;101065.91;12250655;19;20258;-82
2023/08/05 07:52:43;;;;;;;;;;;22.50;52.00;;;21.52;52.29;101080.97;12252130;19;19915;-83
2023/08/05 07:56:45;;;;;;;;;;;22.50;51.90;;;21.51;52.57;101068.66;12248073;19;19914;-81
2023/08/05 08:00:47;;;;;;;;;;;22.50;51.80;;;21.56;52.22;101061.94;12252162;19;20318;-82
2023/08/05 08:04:49;;;;;;;;;;;22.60;51.70;;;21.64;52.68;101064.69;12255005;19;19915;-82
2023/08/05 08:08:51;;;;;;;;;;;22.60;51.80;;;21.62;52.29;101050.69;12251837;19;19919;-83
2023/08/05 08:12:53;;;;;;;;;;;22.70;51.80;;;21.71;52.05;101054.31;12248554;19;19927;-82
2023/08/05 08:16:55;;;;;;;;;;;22.70;51.70;;;21.71;52.38;101054.31;12247788;19;19919;-82
2023/08/05 08:20:56;;;;;;;;;;;22.80;51.60;;;21.70;52.40;101046.47;12248598;19;19926;-83
2023/08/05 08:24:58;;;;;;;;;;;22.70;51.50;;;21.76;52.59;101053.84;12248573;19;19987;-82
2023/08/05 08:29:00;;;;;;;;;;;22.80;51.60;;;21.77;52.57;101053.69;12248969;19;19939;-83
2023/08/05 08:33:02;;;;;;;;;;;22.80;51.70;;;21.69;52.06;101032.34;12246399;19;19923;-82
2023/08/05 08:37:03;;;;;;;;;;;22.80;51.50;;;;;;12247377;19;19935;-82
2023/08/05 08:41:05;;;;;;;;;;;22.80;51.60;;;21.84;52.45;101051.25;12244874;19;19919;-83
2023/08/05 08:45:14;;;;;;;;;;;22.90;51.70;;;22.01;52.42;101077.06;12247828;19;21613;-83
2023/08/05 08:49:18;;;;;;;;;;;23.00;51.70;;;22.03;52.26;101064.41;12245857;19;19919;-83
2023/08/05 08:53:21;;;;;;;;;;;23.00;51.70;;;22.10;52.60;101056.69;12248192;19;19918;-83
2023/08/05 08:57:22;;;;;;;;;;;23.10;51.70;;;22.24;52.58;101066.00;12243333;19;19918;-83
2023/08/05 09:01:24;;;;;;;;;;;23.20;52.50;;;22.26;52.34;101045.41;12248076;19;20606;-82
2023/08/05 09:05:30;;;;;;;;;;;23.30;52.00;;;22.47;52.31;101061.03;12244860;19;19914;-82
2023/08/05 09:09:31;;;;;;;;;;;23.40;51.90;;;22.54;52.35;101051.44;12245728;19;19930;-83
2023/08/05 09:13:33;;;;;;;;;;;23.50;51.90;;;22.63;52.46;101044.34;12246773;19;19978;-82
2023/08/05 09:17:40;;;;;;;;;;;23.60;51.70;;;22.65;52.10;101037.03;12244748;19;19927;-83
2023/08/05 09:21:41;;;;;;;;;;;23.70;51.60;;;22.74;52.16;101038.78;12245433;19;19923;-83
2023/08/05 09:25:46;;;;;;;;;;;23.70;51.60;;;22.81;52.46;101047.78;12245034;19;19918;-82
2023/08/05 09:29:48;;;;;;;;;;;23.80;51.60;;;22.87;52.17;101027.69;12245193;19;19918;-82
2023/08/05 09:33:49;;;;;;;;;;;23.90;51.90;;;22.92;52.27;101023.56;12243342;19;20216;-82
2023/08/05 09:37:52;;;;;;;;;;;24.00;51.30;;;22.95;52.11;101027.72;12241689;19;19914;-82
2023/08/05 09:41:53;;;;;;;;;;;24.00;51.30;;;23.10;52.38;101034.19;12244646;19;19923;-82
2023/08/05 09:45:54;;;;;;;;;;;24.10;51.20;;;23.11;52.12;101017.19;12243927;19;19918;-82
2023/08/05 09:49:59;;;;;;;;;;;24.20;51.20;;;23.26;52.40;101020.09;12243536;19;19932;-82
2023/08/05 09:54:05;;;;;;;;;;;24.30;51.20;;;23.39;52.13;101020.50;12244936;19;20273;-82
2023/08/05 09:58:10;;;;;;;;;;;24.40;51.20;;;23.38;52.46;101002.81;12240352;19;20352;-82
2023/08/05 10:02:12;;;;;;;;;;;24.40;50.50;;;23.57;51.91;101023.06;12245385;19;19918;-83
2023/08/05 10:06:15;;;;;;;;;;;24.60;50.80;;;23.54;52.37;101009.19;12240039;19;20003;-82
2023/08/05 10:10:17;;;;;;;;;;;24.70;50.60;;;23.61;52.05;101010.22;12243133;19;19934;-82
2023/08/05 10:14:19;;;;;;;;;;;24.70;50.80;;;23.64;52.25;101008.06;12239339;19;19915;-82
2023/08/05 10:18:21;;;;;;;;;;;24.70;50.90;;;23.73;52.11;101030.28;12236935;19;19919;-82
2023/08/05 10:22:24;;;;;;;;;;;24.80;50.70;;;23.82;51.90;101037.31;12241162;19;19967;-82
2023/08/05 10:26:40;;;;;;;;;;;24.80;50.70;;;23.89;52.10;101024.13;12241525;19;19925;-82
2023/08/05 10:30:43;;;;;;;;;;;24.90;50.80;;;23.90;52.15;101006.28;12243213;19;19934;-82
2023/08/05 10:35:07;;;;;;;;;;;24.90;50.50;;;23.99;51.83;101016.00;12240952;19;20253;-82
2023/08/05 10:39:44;;;;;;;;;;;25.00;50.40;;;23.99;52.19;100998.16;12237503;19;20017;-82
2023/08/05 10:43:47;;;;;;;;;;;25.00;50.50;;;23.98;52.12;100988.47;12242828;19;19918;-82
2023/08/05 10:47:49;;;;;;;;;;;25.10;50.50;;;24.09;52.02;100995.31;12238828;19;19946;-82
2023/08/05 10:51:50;;;;;;;;;;;25.10;50.50;;;24.02;52.26;100975.63;12239443;19;19930;-82
2023/08/05 10:55:56;;;;;;;;;;;25.10;50.20;;;24.06;52.07;100972.47;12241100;19;19927;-83
2023/08/05 11:00:03;;;;;;;;;;;25.10;50.20;;;24.08;52.01;100951.78;12254983;19;19946;-82
2023/08/05 11:04:25;;;;;;;;;;;25.10;50.00;;;24.17;52.00;100962.44;12252280;19;20566;-82
2023/08/05 11:08:27;;;;;;;;;;;25.10;50.20;;;24.27;51.82;100971.13;12247301;19;19922;-82
2023/08/05 11:12:29;;;;;;;;;;;25.20;50.00;;;24.32;51.67;100979.47;12251747;19;19935;-81
2023/08/05 11:16:30;;;;;;;;;;;25.20;49.50;;;24.38;51.88;100972.59;12249698;19;19933;-81
2023/08/05 11:20:33;;;;;;;;;;;25.30;49.60;;;24.44;51.51;100966.66;12251991;19;19923;-84
2023/08/05 11:24:34;;;;;;;;;;;25.30;49.90;;;24.45;51.66;100958.44;12250717;19;19919;-82
2023/08/05 11:28:45;;;;;;;;;;;25.40;49.40;;;24.48;51.52;100950.09;12247828;19;19921;-83
2023/08/05 11:32:52;;;;;;;;;;;25.50;49.70;;;24.54;51.59;100948.56;12251444;19;19925;-83
2023/08/05 11:36:55;;;;;;;;;;;25.50;50.00;;;24.49;51.60;100945.59;12250632;19;19937;-83
2023/08/05 11:40:57;;;;;;;;;;;25.50;49.70;;;24.41;51.27;100933.06;12251231;19;19911;-83
2023/08/05 11:44:59;;;;;;;;;;;25.50;49.90;;;24.57;51.17;100944.72;12251300;19;19922;-83
2023/08/05 11:49:13;;;;;;;;;;;25.50;50.00;;;24.62;51.58;100948.56;12249836;19;19930;-83
2023/08/05 11:53:18;;;;;;;;;;;25.60;49.70;;;24.67;51.17;100950.72;12249861;19;20262;-82
2023/08/05 11:57:20;;;;;;;;;;;25.60;49.70;;;24.73;51.38;100939.34;12246821;19;19923;-83
2023/08/05 12:01:21;;;;;;;;;;;25.70;49.80;;;24.68;51.42;100931.00;12249135;19;19919;-83
2023/08/05 12:05:23;;;;;;;;;;;25.70;49.90;;;24.78;51.03;100938.84;12247939;19;20019;-82
2023/08/05 12:09:25;;;;;;;;;;;25.70;49.80;;;24.72;51.21;100930.50;12245538;19;19910;-83
2023/08/05 12:13:31;;;;;;;;;;;25.70;49.40;;;24.78;51.23;100928.16;12239348;19;19943;-84
2023/08/05 12:17:33;;;;;;;;;;;25.70;49.70;;;24.79;51.16;100928.00;12243816;19;19927;-83
2023/08/05 12:21:34;;;;;;;;;;;25.70;49.40;;;24.84;51.39;100930.13;12247304;19;20326;-83
2023/08/05 12:25:36;;;;;;;;;;;25.70;49.70;;;24.88;51.11;100931.47;12237245;19;19915;-82
2023/08/05 12:29:37;;;;;;;;;;;25.80;49.60;;;24.93;50.96;100923.75;12246478;19;20351;-83
2023/08/05 12:33:39;;;;;;;;;;;25.80;49.70;;;24.93;51.29;100913.06;12257743;19;19923;-84
2023/08/05 12:37:41;;;;;;;;;;;25.90;49.70;;;24.91;50.79;100905.22;12251389;19;19923;-83
2023/08/05 12:41:43;;;;;;;;;;;25.90;49.50;;;24.95;51.16;100916.38;12246220;19;19934;-86
2023/08/05 12:45:44;;;;;;;;;;;25.90;49.50;;;24.96;50.94;100910.03;12248080;19;19915;-85
2023/08/05 12:49:46;;;;;;;;;;;25.80;49.50;;;24.99;50.85;100899.00;12248456;19;19951;-85
2023/08/05 12:53:48;;;;;;;;;;;25.90;49.60;;;24.94;50.69;100893.34;12248037;19;19914;-85
2023/08/05 12:57:49;;;;;;;;;;;25.90;49.50;;;24.86;50.99;100878.19;12245920;19;19915;-85
2023/08/05 13:01:51;;;;;;;;;;;25.90;49.50;;;25.07;50.57;100908.81;12248856;19;19918;-84
2023/08/05 13:05:52;;;;;;;;;;;25.90;49.40;;;25.05;50.66;100892.13;12247432;19;19922;-85
2023/08/05 13:09:54;;;;;;;;;;;26.00;49.50;;;25.12;50.63;100901.94;12246108;19;19938;-85
2023/08/05 13:13:55;;;;;;;;;;;25.90;49.50;;;25.15;50.66;100906.97;12248848;19;20341;-85
2023/08/05 13:17:56;;;;;;;;;;;26.00;49.20;;;25.06;50.41;100891.09;12245421;19;19915;-86
2023/08/05 13:21:58;;;;;;;;;;;26.00;49.10;;;25.08;50.42;100891.78;12243967;19;19932;-85
2023/08/05 13:26:00;;;;;;;;;;;26.10;49.30;;;25.02;50.64;100887.13;12245494;19;20534;-85
2023/08/05 13:30:02;;;;;;;;;;;26.00;49.10;;;25.17;50.49;100910.31;12245880;19;19914;-84
2023/08/05 13:34:03;;;;;;;;;;;26.00;49.20;;;24.96;50.47;100861.94;12245702;19;19919;-85
2023/08/05 13:38:04;;;;;;;;;;;26.00;49.00;;;24.98;50.71;100867.09;12241533;19;19936;-85
2023/08/05 13:42:06;;;;;;;;;;;26.00;49.20;;;25.17;50.48;100896.94;12241161;19;19915;-85
2023/08/05 13:46:08;;;;;;;;;;;26.00;49.00;;;25.08;50.18;100871.22;12236020;19;19915;-84
2023/08/05 13:50:09;;;;;;;;;;;26.00;48.90;;;25.14;50.60;100883.03;12241699;19;20318;-85
2023/08/05 13:54:11;;;;;;;;;;;26.00;49.10;;;25.14;50.32;100873.22;12242043;19;19926;-84
2023/08/05 13:58:12;;;;;;;;;;;26.00;49.10;;;25.00;50.15;100844.53;12237653;19;19915;-85
2023/08/05 14:02:14;;;;;;;;;;;26.00;48.90;;;25.07;50.27;100848.19;12242550;19;19931;-84
2023/08/05 14:06:16;;;;;;;;;;;26.00;49.00;;;25.15;50.07;100858.84;12243186;19;19914;-85
2023/08/05 14:10:17;;;;;;;;;;;26.00;49.00;;;25.21;50.23;100859.97;12242870;19;19919;-85
2023/08/05 14:14:19;;;;;;;;;;;26.00;48.40;;;25.14;50.01;100838.47;12245885;19;19927;-84
2023/08/05 14:18:20;;;;;;;;;;;26.10;48.80;;;24.95;50.17;100802.34;12239525;19;19994;-85
2023/08/05 14:22:22;;;;;;;;;;;26.10;48.90;;;25.21;50.14;100843.13;12242663;19;19985;-85
2023/08/05 14:26:23;;;;;;;;;;;26.10;48.10;;;25.22;50.30;100847.44;12241463;19;19918;-84
2023/08/05 14:30:26;;;;;;;;;;;26.10;48.30;;;25.15;49.96;100829.44;12243898;19;19919;-84
2023/08/05 14:34:27;;;;;;;;;;;26.00;48.50;;;25.23;50.20;100833.91;12251841;19;19922;-84
2023/08/05 14:38:29;;;;;;;;;;;26.10;48.70;;;25.19;49.98;100821.06;12246997;19;19922;-84
2023/08/05 14:42:30;;;;;;;;;;;26.00;48.60;;;25.12;50.12;100811.06;12248686;19;19950;-85
2023/08/05 14:46:32;;;;;;;;;;;26.00;48.60;;;25.18;50.03;100814.91;12248529;19;19919;-84
2023/08/05 14:50:39;;;;;;;;;;;26.00;48.80;;;25.16;49.94;100816.91;12254661;19;19932;-86
2023/08/05 14:54:41;;;;;;;;;;;26.00;48.70;;;25.24;49.82;100824.06;12254088;19;19957;-85
2023/08/05 14:58:42;;;;;;;;;;;26.10;48.40;;;25.20;49.90;100812.06;12251465;19;20345;-84
2023/08/05 15:02:43;;;;;;;;;;;26.10;48.60;;;25.23;49.81;100819.72;12253102;19;19914;-85
2023/08/05 15:06:46;;;;;;;;;;;26.10;48.70;;;25.20;49.97;100807.53;12251432;19;19918;-85
2023/08/05 15:10:57;;;;;;;;;;;26.10;48.80;;;25.25;50.01;100815.88;12255828;19;19915;-86
2023/08/05 15:14:58;;;;;;;;;;;26.10;48.30;;;25.24;49.59;100816.03;12253791;19;19915;-86
2023/08/05 15:18:59;;;;;;;;;;;26.10;48.60;;;25.27;49.82;100813.00;12248071;19;21571;-85
2023/08/05 15:23:01;;;;;;;;;;;26.10;48.40;;;25.16;49.88;100785.66;12253120;19;20254;-86
2023/08/05 15:27:04;;;;;;;;;;;26.10;48.50;;;25.28;49.96;100793.28;12251174;19;20815;-85
2023/08/05 15:31:06;;;;;;;;;;;26.10;48.10;;;25.20;49.50;100788.84;12252537;19;19928;-85
2023/08/05 15:35:09;;;;;;;;;;;26.10;48.40;;;25.16;49.68;100780.31;12251642;19;19921;-85
2023/08/05 15:39:11;;;;;;;;;;;26.00;48.30;;;25.09;49.61;100770.53;12250108;19;20260;-85
2023/08/05 15:43:12;;;;;;;;;;;26.00;48.30;;;25.11;49.83;100766.66;12251333;19;20256;-85
2023/08/05 15:47:14;;;;;;;;;;;26.00;48.50;;;25.21;49.74;100777.13;12250406;19;19982;-85
2023/08/05 15:51:16;;;;;;;;;;;26.00;48.60;;;25.26;49.72;100768.56;12253432;19;19926;-85
2023/08/05 15:55:17;;;;;;;;;;;26.00;48.60;;;25.05;49.54;100727.25;12251431;19;19923;-85
2023/08/05 15:59:19;;;;;;;;;;;26.10;48.70;;;25.24;49.44;100763.38;12246384;19;19915;-85
2023/08/05 16:03:20;;;;;;;;;;;26.10;48.60;;;25.24;49.25;100759.91;12253318;19;19918;-85
2023/08/05 16:07:21;;;;;;;;;;;26.10;48.60;;;25.21;49.35;100755.72;12249150;19;20257;-85
2023/08/05 16:11:23;;;;;;;;;;;26.00;48.50;;;25.25;49.41;100758.88;12251040;19;19978;-85
2023/08/05 16:15:25;;;;;;;;;;;26.00;48.50;;;25.04;49.37;100716.78;12249695;19;20341;-85
2023/08/05 16:19:26;;;;;;;;;;;26.00;48.40;;;25.17;49.21;100736.56;12245952;19;20273;-85
2023/08/05 16:23:28;;;;;;;;;;;26.00;48.50;;;25.20;49.39;100747.91;12250885;19;19942;-85
2023/08/05 16:27:29;;;;;;;;;;;26.00;48.60;;;25.15;49.40;100725.22;12244818;19;19919;-85
2023/08/05 16:31:30;;;;;;;;;;;26.00;48.80;;;25.08;49.20;100713.53;12251124;19;19943;-85
2023/08/05 16:35:32;;;;;;;;;;;26.00;48.90;;;24.99;49.52;100695.09;12248527;19;19919;-84
2023/08/05 16:39:33;;;;;;;;;;;26.00;48.90;;;25.18;49.27;100729.38;12248146;19;19919;-85
2023/08/05 16:43:35;;;;;;;;;;;25.90;48.80;;;24.95;49.20;100687.44;12249665;19;19918;-85
2023/08/05 16:47:37;;;;;;;;;;;26.00;49.00;;;24.99;49.37;100703.13;12247280;19;19918;-84
2023/08/05 16:51:39;;;;;;;;;;;26.00;49.00;;;25.11;49.37;100713.22;12246819;19;20275;-85
2023/08/05 16:55:41;;;;;;;;;;;26.00;49.00;;;25.10;49.25;100719.53;12247970;19;19974;-85
2023/08/05 16:59:43;;;;;;;;;;;26.00;49.10;;;25.08;49.08;100721.56;12246385;19;19998;-84
2023/08/05 17:03:45;;;;;;;;;;;25.90;49.00;;;24.85;49.02;100686.03;12247828;19;19925;-85
2023/08/05 17:07:46;;;;;;;;;;;25.80;48.90;;;24.94;49.29;100709.00;12244585;19;19921;-85
2023/08/05 17:11:48;;;;;;;;;;;25.80;48.90;;;24.94;49.13;100725.84;12247116;19;19943;-85
2023/08/05 17:15:49;;;;;;;;;;;25.70;48.90;;;24.83;49.46;100712.91;12246056;19;19927;-84
2023/08/05 17:19:51;;;;;;;;;;;25.70;48.90;;;24.80;49.51;100715.94;12248274;19;19918;-84
2023/08/05 17:23:52;;;;;;;;;;;25.60;49.00;;;24.81;49.49;100727.44;12246998;19;19935;-85
2023/08/05 17:27:53;;;;;;;;;;;25.50;49.10;;;24.74;49.41;100716.66;12245465;19;19919;-85
2023/08/05 17:31:55;;;;;;;;;;;25.50;49.10;;;24.70;49.27;100715.34;12242272;19;20265;-85
2023/08/05 17:35:56;;;;;;;;;;;25.40;49.10;;;24.61;49.31;100706.56;12243761;19;19919;-86
2023/08/05 17:39:58;;;;;;;;;;;25.40;49.10;;;24.56;49.23;100714.25;12243189;19;19915;-86
2023/08/05 17:43:59;;;;;;;;;;;25.30;49.40;;;24.53;49.07;100705.78;12245973;19;20260;-86
2023/08/05 17:48:01;;;;;;;;;;;25.20;49.00;;;24.29;49.47;100687.03;12241047;19;19923;-86
2023/08/05 17:52:03;;;;;;;;;;;25.20;49.00;;;24.21;49.40;100673.72;12246069;19;19918;-85
2023/08/05 17:56:04;;;;;;;;;;;25.10;49.10;;;24.34;49.26;100704.38;12244245;19;19922;-89
2023/08/05 18:00:06;;;;;;;;;;;25.10;49.20;;;24.32;49.25;100699.19;12245579;19;19929;-88
2023/08/05 18:04:08;;;;;;;;;;;25.10;49.30;;;24.23;49.16;100689.56;12245288;19;19915;-88
2023/08/05 18:08:10;;;;;;;;;;;25.00;49.30;;;24.21;49.54;100702.25;12247515;19;19937;-84